PWSweather.com
Personal Weather Stations
Station Observations
WD4JKH
Forsyth, GA 31029

Forsyth, GA 31029

Lat: 33.033225, Lon: -83.927995

Elevation: 709

Station Type: Davis Vantage VUE

High Low Average
Temperature 70.0°F21.1°C 45.7°F7.6°C 56.8°F13.8°C
Dew Point 67.9°F19.9°C 45.1°F7.3°C 56.3°F13.5°C
Winds 4.4 mph 7.1 kmh Calm Calm 1.0 mph SE1.6 kmh SE
Wind Gusts 11.0 mph17.7 kmh -- 4.0 mph6.4 kmh
Humidity 99% 91% 98%
Pressure 30.17 in1021.7 mb 30.07 in1018.3 mb -
Precipitation 0.08 in2.0 mm - -
Hour Temp Dew Point Humidity Winds Wind Gusts Pressure Precip Precip Rate Daily Precip Total
12:00 AM 46.7°F8.2°C 46.1°F7.8°C 98% 2.5 mph NE4.0 kmh NE 7.0 mph11.3 kmh 30.12 in1020.0 mb 0.00 in0.0 mm 0.00 in0.0 mm 0.08 in2.0 mm
12:05 AM 46.7°F8.2°C 46.2°F7.9°C 98% 2.9 mph ENE4.7 kmh ENE 7.0 mph11.3 kmh 30.11 in1019.6 mb 0.00 in0.0 mm 0.00 in0.0 mm 0.00 in0.0 mm
12:10 AM 46.7°F8.2°C 46.1°F7.8°C 98% 3.8 mph E6.1 kmh E 7.0 mph11.3 kmh 30.10 in1019.3 mb 0.00 in0.0 mm 0.00 in0.0 mm 0.00 in0.0 mm
12:15 AM 46.7°F8.2°C 46.1°F7.8°C 98% 1.0 mph NE1.6 kmh NE 7.0 mph11.3 kmh 30.11 in1019.6 mb 0.00 in0.0 mm 0.00 in0.0 mm 0.00 in0.0 mm
12:20 AM 46.7°F8.2°C 46.2°F7.9°C 98% 2.0 mph NE3.2 kmh NE 7.0 mph11.3 kmh 30.11 in1019.6 mb 0.00 in0.0 mm 0.00 in0.0 mm 0.00 in0.0 mm
12:25 AM 46.6°F8.1°C 46.0°F7.8°C 98% 2.3 mph NE3.7 kmh NE 7.0 mph11.3 kmh 30.11 in1019.6 mb 0.00 in0.0 mm 0.00 in0.0 mm 0.00 in0.0 mm
12:30 AM 46.6°F8.1°C 46.0°F7.8°C 98% 2.2 mph NNE3.5 kmh NNE 4.0 mph6.4 kmh 30.11 in1019.6 mb 0.00 in0.0 mm 0.00 in0.0 mm 0.00 in0.0 mm
12:35 AM 46.6°F8.1°C 46.0°F7.8°C 98% 1.9 mph NE3.1 kmh NE 4.0 mph6.4 kmh 30.11 in1019.6 mb 0.00 in0.0 mm 0.00 in0.0 mm 0.00 in0.0 mm
12:40 AM 46.5°F8.1°C 45.9°F7.7°C 98% 2.7 mph NE4.3 kmh NE 6.0 mph9.7 kmh 30.11 in1019.6 mb 0.00 in0.0 mm 0.00 in0.0 mm 0.00 in0.0 mm
12:45 AM 46.5°F8.1°C 45.9°F7.7°C 98% 3.5 mph NE5.6 kmh NE 6.0 mph9.7 kmh 30.11 in1019.6 mb 0.00 in0.0 mm 0.00 in0.0 mm 0.00 in0.0 mm
12:50 AM 46.4°F8.0°C 45.9°F7.7°C 98% 2.3 mph NE3.7 kmh NE 6.0 mph9.7 kmh 30.11 in1019.6 mb 0.00 in0.0 mm 0.00 in0.0 mm 0.00 in0.0 mm
12:55 AM 46.4°F8.0°C 45.8°F7.7°C 98% 3.5 mph NE5.6 kmh NE 6.0 mph9.7 kmh 30.11 in1019.6 mb 0.00 in0.0 mm 0.00 in0.0 mm 0.00 in0.0 mm
01:00 AM 46.3°F7.9°C 45.7°F7.6°C 98% 2.6 mph NNE4.2 kmh NNE 9.0 mph14.5 kmh 30.12 in1020.0 mb 0.00 in0.0 mm 0.00 in0.0 mm 0.00 in0.0 mm
01:05 AM 46.3°F7.9°C 45.8°F7.7°C 98% 2.5 mph NNE4.0 kmh NNE 9.0 mph14.5 kmh 30.12 in1020.0 mb 0.00 in0.0 mm 0.00 in0.0 mm 0.00 in0.0 mm
01:10 AM 46.3°F7.9°C 45.7°F7.6°C 98% 1.1 mph NNE1.8 kmh NNE 9.0 mph14.5 kmh 30.12 in1020.0 mb 0.00 in0.0 mm 0.00 in0.0 mm 0.00 in0.0 mm
01:14 AM 46.1°F7.8°C 45.6°F7.6°C 98% 3.6 mph NE5.8 kmh NE 9.0 mph14.5 kmh 30.12 in1020.0 mb 0.00 in0.0 mm 0.00 in0.0 mm 0.00 in0.0 mm
01:19 AM 46.0°F7.8°C 45.4°F7.4°C 98% 3.6 mph NE5.8 kmh NE 8.0 mph12.9 kmh 30.11 in1019.6 mb 0.00 in0.0 mm 0.00 in0.0 mm 0.00 in0.0 mm
01:24 AM 46.0°F7.8°C 45.4°F7.4°C 98% 2.4 mph NE3.9 kmh NE 7.0 mph11.3 kmh 30.11 in1019.6 mb 0.00 in0.0 mm 0.00 in0.0 mm 0.00 in0.0 mm
01:29 AM 45.9°F7.7°C 45.3°F7.4°C 98% 2.0 mph NE3.2 kmh NE 7.0 mph11.3 kmh 30.11 in1019.6 mb 0.00 in0.0 mm 0.00 in0.0 mm 0.00 in0.0 mm
01:34 AM 45.9°F7.7°C 45.4°F7.4°C 98% 3.6 mph NE5.8 kmh NE 6.0 mph9.7 kmh 30.11 in1019.6 mb 0.00 in0.0 mm 0.00 in0.0 mm 0.00 in0.0 mm
01:39 AM 45.9°F7.7°C 45.3°F7.4°C 98% 3.2 mph NE5.1 kmh NE 6.0 mph9.7 kmh 30.11 in1019.6 mb 0.00 in0.0 mm 0.00 in0.0 mm 0.00 in0.0 mm
01:44 AM 45.8°F7.7°C 45.2°F7.3°C 98% 3.4 mph NE5.5 kmh NE 7.0 mph11.3 kmh 30.11 in1019.6 mb 0.00 in0.0 mm 0.00 in0.0 mm 0.00 in0.0 mm
01:49 AM 45.8°F7.7°C 45.2°F7.3°C 98% 2.1 mph NE3.4 kmh NE 7.0 mph11.3 kmh 30.11 in1019.6 mb 0.00 in0.0 mm 0.00 in0.0 mm 0.00 in0.0 mm
01:54 AM 45.8°F7.7°C 45.2°F7.3°C 98% 1.5 mph ENE2.4 kmh ENE 7.0 mph11.3 kmh 30.10 in1019.3 mb 0.00 in0.0 mm 0.00 in0.0 mm 0.00 in0.0 mm
01:59 AM 45.8°F7.7°C 45.2°F7.3°C 98% 2.7 mph ENE4.3 kmh ENE 7.0 mph11.3 kmh 30.10 in1019.3 mb 0.00 in0.0 mm 0.00 in0.0 mm 0.00 in0.0 mm
02:04 AM 45.8°F7.7°C 45.3°F7.4°C 98% 2.7 mph NE4.3 kmh NE 6.0 mph9.7 kmh 30.10 in1019.3 mb 0.00 in0.0 mm 0.00 in0.0 mm 0.00 in0.0 mm
02:09 AM 45.8°F7.7°C 45.2°F7.3°C 98% 2.4 mph NNE3.9 kmh NNE 6.0 mph9.7 kmh 30.11 in1019.6 mb 0.00 in0.0 mm 0.00 in0.0 mm 0.00 in0.0 mm
02:14 AM 45.8°F7.7°C 45.3°F7.4°C 98% 2.6 mph NE4.2 kmh NE 6.0 mph9.7 kmh 30.10 in1019.3 mb 0.00 in0.0 mm 0.00 in0.0 mm 0.00 in0.0 mm
02:19 AM 45.7°F7.6°C 45.1°F7.3°C 98% 3.1 mph ENE5.0 kmh ENE 6.0 mph9.7 kmh 30.10 in1019.3 mb 0.00 in0.0 mm 0.00 in0.0 mm 0.00 in0.0 mm
02:24 AM 45.7°F7.6°C 45.1°F7.3°C 98% 3.0 mph NE4.8 kmh NE 6.0 mph9.7 kmh 30.09 in1019.0 mb 0.00 in0.0 mm 0.00 in0.0 mm 0.00 in0.0 mm
02:29 AM 45.7°F7.6°C 45.1°F7.3°C 98% 4.2 mph ENE6.8 kmh ENE 7.0 mph11.3 kmh 30.09 in1019.0 mb 0.00 in0.0 mm 0.00 in0.0 mm 0.00 in0.0 mm
02:34 AM 45.7°F7.6°C 45.1°F7.3°C 98% 1.9 mph NE3.1 kmh NE 7.0 mph11.3 kmh 30.09 in1019.0 mb 0.00 in0.0 mm 0.00 in0.0 mm 0.00 in0.0 mm
02:39 AM 45.7°F7.6°C 45.4°F7.4°C 99% 2.4 mph NE3.9 kmh NE 7.0 mph11.3 kmh 30.09 in1019.0 mb 0.00 in0.0 mm 0.00 in0.0 mm 0.00 in0.0 mm
02:44 AM 45.7°F7.6°C 45.2°F7.3°C 98% 2.5 mph ENE4.0 kmh ENE 7.0 mph11.3 kmh 30.09 in1019.0 mb 0.00 in0.0 mm 0.00 in0.0 mm 0.00 in0.0 mm
02:49 AM 45.7°F7.6°C 45.4°F7.4°C 99% 2.0 mph ENE3.2 kmh ENE 6.0 mph9.7 kmh 30.09 in1019.0 mb 0.00 in0.0 mm 0.00 in0.0 mm 0.00 in0.0 mm
02:54 AM 45.7°F7.6°C 45.4°F7.4°C 99% 1.8 mph NE2.9 kmh NE 6.0 mph9.7 kmh 30.09 in1019.0 mb 0.00 in0.0 mm 0.00 in0.0 mm 0.00 in0.0 mm
03:00 AM 45.8°F7.7°C 45.5°F7.5°C 99% 1.2 mph ENE1.9 kmh ENE 6.0 mph9.7 kmh 30.09 in1019.0 mb 0.00 in0.0 mm 0.00 in0.0 mm 0.00 in0.0 mm
03:04 AM 45.8°F7.7°C 45.5°F7.5°C 99% 1.1 mph E1.8 kmh E 5.0 mph8.0 kmh 30.09 in1019.0 mb 0.00 in0.0 mm 0.00 in0.0 mm 0.00 in0.0 mm
03:09 AM 45.8°F7.7°C 45.5°F7.5°C 99% 1.4 mph ENE2.3 kmh ENE 3.0 mph4.8 kmh 30.09 in1019.0 mb 0.00 in0.0 mm 0.00 in0.0 mm 0.00 in0.0 mm
03:15 AM 45.8°F7.7°C 45.5°F7.5°C 99% 1.7 mph ENE2.7 kmh ENE 3.0 mph4.8 kmh 30.09 in1019.0 mb 0.00 in0.0 mm 0.00 in0.0 mm 0.00 in0.0 mm
03:20 AM 45.9°F7.7°C 45.6°F7.6°C 99% 2.6 mph E4.2 kmh E 4.0 mph6.4 kmh 30.09 in1019.0 mb 0.00 in0.0 mm 0.00 in0.0 mm 0.00 in0.0 mm
03:25 AM 45.8°F7.7°C 45.5°F7.5°C 99% 2.0 mph E3.2 kmh E 4.0 mph6.4 kmh 30.08 in1018.6 mb 0.01 in0.3 mm 0.12 in3.0 mm 0.01 in0.3 mm
03:30 AM 45.9°F7.7°C 45.6°F7.6°C 99% 1.0 mph E1.6 kmh E 4.0 mph6.4 kmh 30.08 in1018.6 mb 0.01 in0.3 mm 0.00 in0.0 mm 0.01 in0.3 mm
03:35 AM 46.0°F7.8°C 45.7°F7.6°C 99% 1.1 mph ENE1.8 kmh ENE 4.0 mph6.4 kmh 30.08 in1018.6 mb 0.01 in0.3 mm 0.00 in0.0 mm 0.01 in0.3 mm
03:40 AM 46.0°F7.8°C 45.7°F7.6°C 99% 1.7 mph ENE2.7 kmh ENE 4.0 mph6.4 kmh 30.08 in1018.6 mb 0.01 in0.3 mm 0.00 in0.0 mm 0.01 in0.3 mm
03:45 AM 46.1°F7.8°C 45.8°F7.7°C 99% 1.6 mph E2.6 kmh E 4.0 mph6.4 kmh 30.07 in1018.3 mb 0.01 in0.3 mm 0.00 in0.0 mm 0.01 in0.3 mm
03:50 AM 46.1°F7.8°C 45.8°F7.7°C 99% 1.0 mph ENE1.6 kmh ENE 4.0 mph6.4 kmh 30.07 in1018.3 mb 0.01 in0.3 mm 0.00 in0.0 mm 0.01 in0.3 mm
03:55 AM 46.1°F7.8°C 45.8°F7.7°C 99% Calm Calm 4.0 mph6.4 kmh 30.07 in1018.3 mb 0.01 in0.3 mm 0.00 in0.0 mm 0.01 in0.3 mm
04:00 AM 46.1°F7.8°C 45.8°F7.7°C 99% 1.0 mph ENE1.6 kmh ENE 3.0 mph4.8 kmh 30.07 in1018.3 mb 0.01 in0.3 mm 0.00 in0.0 mm 0.01 in0.3 mm
04:05 AM 46.2°F7.9°C 45.9°F7.7°C 99% Calm Calm 3.0 mph4.8 kmh 30.07 in1018.3 mb 0.01 in0.3 mm 0.00 in0.0 mm 0.01 in0.3 mm
04:10 AM 46.1°F7.8°C 45.8°F7.7°C 99% 1.0 mph ENE1.6 kmh ENE 3.0 mph4.8 kmh 30.07 in1018.3 mb 0.01 in0.3 mm 0.00 in0.0 mm 0.01 in0.3 mm
04:15 AM 46.2°F7.9°C 45.9°F7.7°C 99% Calm Calm 3.0 mph4.8 kmh 30.07 in1018.3 mb 0.01 in0.3 mm 0.00 in0.0 mm 0.01 in0.3 mm
04:20 AM 46.1°F7.8°C 45.8°F7.7°C 99% 1.0 mph NE1.6 kmh NE 3.0 mph4.8 kmh 30.08 in1018.6 mb 0.01 in0.3 mm 0.00 in0.0 mm 0.01 in0.3 mm
04:25 AM 46.1°F7.8°C 45.8°F7.7°C 99% 1.0 mph NE1.6 kmh NE 2.0 mph3.2 kmh 30.08 in1018.6 mb 0.00 in0.0 mm 0.00 in0.0 mm 0.01 in0.3 mm
04:30 AM 46.1°F7.8°C 45.8°F7.7°C 99% 1.0 mph NE1.6 kmh NE 2.0 mph3.2 kmh 30.08 in1018.6 mb 0.00 in0.0 mm 0.00 in0.0 mm 0.01 in0.3 mm
04:35 AM 46.1°F7.8°C 45.8°F7.7°C 99% Calm Calm 2.0 mph3.2 kmh 30.08 in1018.6 mb 0.00 in0.0 mm 0.00 in0.0 mm 0.01 in0.3 mm
04:40 AM 46.1°F7.8°C 45.8°F7.7°C 99% 1.0 mph ENE1.6 kmh ENE 2.0 mph3.2 kmh 30.08 in1018.6 mb 0.00 in0.0 mm 0.00 in0.0 mm 0.01 in0.3 mm
04:45 AM 46.2°F7.9°C 45.9°F7.7°C 99% Calm Calm 2.0 mph3.2 kmh 30.09 in1019.0 mb 0.00 in0.0 mm 0.00 in0.0 mm 0.01 in0.3 mm
04:50 AM 46.2°F7.9°C 45.9°F7.7°C 99% 1.0 mph E1.6 kmh E 1.0 mph1.6 kmh 30.09 in1019.0 mb 0.00 in0.0 mm 0.00 in0.0 mm 0.01 in0.3 mm
04:55 AM 46.3°F7.9°C 46.0°F7.8°C 99% 1.0 mph E1.6 kmh E 2.0 mph3.2 kmh 30.09 in1019.0 mb 0.00 in0.0 mm 0.00 in0.0 mm 0.01 in0.3 mm
05:00 AM 46.3°F7.9°C 46.0°F7.8°C 99% 1.0 mph NE1.6 kmh NE 2.0 mph3.2 kmh 30.09 in1019.0 mb 0.00 in0.0 mm 0.00 in0.0 mm 0.01 in0.3 mm
05:05 AM 46.3°F7.9°C 46.0°F7.8°C 99% Calm Calm 2.0 mph3.2 kmh 30.09 in1019.0 mb 0.00 in0.0 mm 0.00 in0.0 mm 0.01 in0.3 mm
05:10 AM 46.3°F7.9°C 46.0°F7.8°C 99% 1.0 mph NE1.6 kmh NE 2.0 mph3.2 kmh 30.10 in1019.3 mb 0.00 in0.0 mm 0.00 in0.0 mm 0.01 in0.3 mm
05:15 AM 46.3°F7.9°C 46.0°F7.8°C 99% 1.0 mph NE1.6 kmh NE 2.0 mph3.2 kmh 30.10 in1019.3 mb 0.00 in0.0 mm 0.00 in0.0 mm 0.01 in0.3 mm
05:20 AM 46.3°F7.9°C 46.0°F7.8°C 99% 1.1 mph NE1.8 kmh NE 2.0 mph3.2 kmh 30.10 in1019.3 mb 0.00 in0.0 mm 0.00 in0.0 mm 0.01 in0.3 mm
05:25 AM 46.3°F7.9°C 46.0°F7.8°C 99% 1.0 mph ENE1.6 kmh ENE 2.0 mph3.2 kmh 30.10 in1019.3 mb 0.00 in0.0 mm 0.00 in0.0 mm 0.01 in0.3 mm
05:30 AM 46.3°F7.9°C 46.0°F7.8°C 99% 1.0 mph ENE1.6 kmh ENE 2.0 mph3.2 kmh 30.10 in1019.3 mb 0.00 in0.0 mm 0.00 in0.0 mm 0.01 in0.3 mm
05:35 AM 46.4°F8.0°C 46.1°F7.8°C 99% 1.0 mph SE1.6 kmh SE 2.0 mph3.2 kmh 30.10 in1019.3 mb 0.00 in0.0 mm 0.00 in0.0 mm 0.01 in0.3 mm
05:40 AM 46.4°F8.0°C 46.1°F7.8°C 99% 1.3 mph ESE2.1 kmh ESE 2.0 mph3.2 kmh 30.10 in1019.3 mb 0.00 in0.0 mm 0.00 in0.0 mm 0.01 in0.3 mm
05:45 AM 46.5°F8.1°C 46.2°F7.9°C 99% 1.0 mph SE1.6 kmh SE 2.0 mph3.2 kmh 30.10 in1019.3 mb 0.00 in0.0 mm 0.00 in0.0 mm 0.01 in0.3 mm
05:50 AM 46.6°F8.1°C 46.3°F7.9°C 99% 1.5 mph SE2.4 kmh SE 3.0 mph4.8 kmh 30.10 in1019.3 mb 0.00 in0.0 mm 0.00 in0.0 mm 0.01 in0.3 mm
05:55 AM 46.7°F8.2°C 46.4°F8.0°C 99% 1.2 mph SE1.9 kmh SE 3.0 mph4.8 kmh 30.09 in1019.0 mb 0.00 in0.0 mm 0.00 in0.0 mm 0.01 in0.3 mm
06:00 AM 46.8°F8.2°C 46.5°F8.1°C 99% 1.3 mph SE2.1 kmh SE 3.0 mph4.8 kmh 30.10 in1019.3 mb 0.00 in0.0 mm 0.00 in0.0 mm 0.01 in0.3 mm
06:05 AM 47.0°F8.3°C 46.7°F8.2°C 99% 1.6 mph SE2.6 kmh SE 3.0 mph4.8 kmh 30.10 in1019.3 mb 0.00 in0.0 mm 0.00 in0.0 mm 0.01 in0.3 mm
06:10 AM 47.2°F8.4°C 46.9°F8.3°C 99% Calm Calm 3.0 mph4.8 kmh 30.10 in1019.3 mb 0.00 in0.0 mm 0.00 in0.0 mm 0.01 in0.3 mm
06:14 AM 47.2°F8.4°C 46.9°F8.3°C 99% Calm Calm 3.0 mph4.8 kmh 30.10 in1019.3 mb 0.00 in0.0 mm 0.00 in0.0 mm 0.01 in0.3 mm
06:19 AM 47.3°F8.5°C 47.0°F8.3°C 99% 1.0 mph NW1.6 kmh NW 2.0 mph3.2 kmh 30.11 in1019.6 mb 0.00 in0.0 mm 0.00 in0.0 mm 0.01 in0.3 mm
06:24 AM 47.3°F8.5°C 47.0°F8.3°C 99% Calm Calm 1.0 mph1.6 kmh 30.11 in1019.6 mb 0.00 in0.0 mm 0.00 in0.0 mm 0.01 in0.3 mm
06:29 AM 47.4°F8.6°C 47.1°F8.4°C 99% Calm Calm 1.0 mph1.6 kmh 30.11 in1019.6 mb 0.00 in0.0 mm 0.00 in0.0 mm 0.01 in0.3 mm
06:34 AM 47.4°F8.6°C 47.1°F8.4°C 99% Calm Calm 1.0 mph1.6 kmh 30.11 in1019.6 mb 0.00 in0.0 mm 0.00 in0.0 mm 0.01 in0.3 mm
06:39 AM 47.4°F8.6°C 47.1°F8.4°C 99% Calm Calm -- 30.11 in1019.6 mb 0.00 in0.0 mm 0.00 in0.0 mm 0.01 in0.3 mm
06:44 AM 47.4°F8.6°C 47.1°F8.4°C 99% Calm Calm -- 30.11 in1019.6 mb 0.00 in0.0 mm 0.00 in0.0 mm 0.01 in0.3 mm
06:49 AM 47.4°F8.6°C 47.1°F8.4°C 99% 1.4 mph N2.3 kmh N 2.0 mph3.2 kmh 30.12 in1020.0 mb 0.00 in0.0 mm 0.00 in0.0 mm 0.01 in0.3 mm
06:54 AM 47.1°F8.4°C 46.8°F8.2°C 99% 1.2 mph NE1.9 kmh NE 2.0 mph3.2 kmh 30.12 in1020.0 mb 0.00 in0.0 mm 0.00 in0.0 mm 0.01 in0.3 mm
06:59 AM 47.1°F8.4°C 46.8°F8.2°C 99% 1.4 mph N2.3 kmh N 3.0 mph4.8 kmh 30.12 in1020.0 mb 0.00 in0.0 mm 0.00 in0.0 mm 0.01 in0.3 mm
07:04 AM 47.0°F8.3°C 46.7°F8.2°C 99% 1.0 mph N1.6 kmh N 3.0 mph4.8 kmh 30.12 in1020.0 mb 0.00 in0.0 mm 0.00 in0.0 mm 0.01 in0.3 mm
07:09 AM 47.0°F8.3°C 46.7°F8.2°C 99% 1.2 mph NE1.9 kmh NE 3.0 mph4.8 kmh 30.12 in1020.0 mb 0.00 in0.0 mm 0.00 in0.0 mm 0.01 in0.3 mm
07:14 AM 46.9°F8.3°C 46.6°F8.1°C 99% 1.5 mph N2.4 kmh N 3.0 mph4.8 kmh 30.13 in1020.3 mb 0.00 in0.0 mm 0.00 in0.0 mm 0.01 in0.3 mm
07:19 AM 46.9°F8.3°C 46.6°F8.1°C 99% 1.5 mph NNE2.4 kmh NNE 3.0 mph4.8 kmh 30.13 in1020.3 mb 0.00 in0.0 mm 0.00 in0.0 mm 0.01 in0.3 mm
07:24 AM 46.8°F8.2°C 46.5°F8.1°C 99% 1.8 mph NNE2.9 kmh NNE 3.0 mph4.8 kmh 30.13 in1020.3 mb 0.00 in0.0 mm 0.00 in0.0 mm 0.01 in0.3 mm
07:29 AM 46.7°F8.2°C 46.4°F8.0°C 99% 1.5 mph NNE2.4 kmh NNE 4.0 mph6.4 kmh 30.13 in1020.3 mb 0.00 in0.0 mm 0.00 in0.0 mm 0.01 in0.3 mm
07:34 AM 46.7°F8.2°C 46.4°F8.0°C 99% 1.7 mph NNE2.7 kmh NNE 4.0 mph6.4 kmh 30.14 in1020.7 mb 0.00 in0.0 mm 0.00 in0.0 mm 0.01 in0.3 mm
07:39 AM 46.7°F8.2°C 46.4°F8.0°C 99% 1.5 mph N2.4 kmh N 4.0 mph6.4 kmh 30.14 in1020.7 mb 0.00 in0.0 mm 0.00 in0.0 mm 0.01 in0.3 mm
07:44 AM 46.7°F8.2°C 46.4°F8.0°C 99% 1.2 mph NE1.9 kmh NE 4.0 mph6.4 kmh 30.14 in1020.7 mb 0.00 in0.0 mm 0.00 in0.0 mm 0.01 in0.3 mm
07:49 AM 46.7°F8.2°C 46.4°F8.0°C 99% 1.6 mph NE2.6 kmh NE 4.0 mph6.4 kmh 30.14 in1020.7 mb 0.00 in0.0 mm 0.00 in0.0 mm 0.01 in0.3 mm
07:54 AM 46.6°F8.1°C 46.3°F7.9°C 99% 2.1 mph NE3.4 kmh NE 4.0 mph6.4 kmh 30.14 in1020.7 mb 0.00 in0.0 mm 0.00 in0.0 mm 0.01 in0.3 mm
07:59 AM 46.7°F8.2°C 46.4°F8.0°C 99% 1.2 mph NE1.9 kmh NE 4.0 mph6.4 kmh 30.14 in1020.7 mb 0.00 in0.0 mm 0.00 in0.0 mm 0.01 in0.3 mm
08:04 AM 46.6°F8.1°C 46.3°F7.9°C 99% 1.6 mph ENE2.6 kmh ENE 4.0 mph6.4 kmh 30.15 in1021.0 mb 0.00 in0.0 mm 0.00 in0.0 mm 0.01 in0.3 mm
08:09 AM 46.7°F8.2°C 46.4°F8.0°C 99% 1.7 mph ENE2.7 kmh ENE 3.0 mph4.8 kmh 30.14 in1020.7 mb 0.00 in0.0 mm 0.00 in0.0 mm 0.01 in0.3 mm
08:14 AM 46.7°F8.2°C 46.4°F8.0°C 99% Calm Calm 3.0 mph4.8 kmh 30.15 in1021.0 mb 0.00 in0.0 mm 0.00 in0.0 mm 0.01 in0.3 mm
08:19 AM 46.9°F8.3°C 46.6°F8.1°C 99% 2.0 mph ENE3.2 kmh ENE 3.0 mph4.8 kmh 30.14 in1020.7 mb 0.00 in0.0 mm 0.00 in0.0 mm 0.01 in0.3 mm
08:24 AM 47.0°F8.3°C 46.7°F8.2°C 99% 2.4 mph NE3.9 kmh NE 3.0 mph4.8 kmh 30.15 in1021.0 mb 0.00 in0.0 mm 0.00 in0.0 mm 0.01 in0.3 mm
08:29 AM 47.1°F8.4°C 46.8°F8.2°C 99% 1.3 mph NE2.1 kmh NE 3.0 mph4.8 kmh 30.15 in1021.0 mb 0.00 in0.0 mm 0.00 in0.0 mm 0.01 in0.3 mm
08:34 AM 47.1°F8.4°C 46.8°F8.2°C 99% 1.0 mph NNE1.6 kmh NNE 3.0 mph4.8 kmh 30.15 in1021.0 mb 0.00 in0.0 mm 0.00 in0.0 mm 0.01 in0.3 mm
08:39 AM 47.2°F8.4°C 46.9°F8.3°C 99% Calm Calm 3.0 mph4.8 kmh 30.15 in1021.0 mb 0.00 in0.0 mm 0.00 in0.0 mm 0.01 in0.3 mm
08:44 AM 47.5°F8.6°C 47.2°F8.4°C 99% 1.0 mph N1.6 kmh N 2.0 mph3.2 kmh 30.16 in1021.3 mb 0.00 in0.0 mm 0.00 in0.0 mm 0.01 in0.3 mm
08:49 AM 47.4°F8.6°C 47.1°F8.4°C 99% 1.3 mph N2.1 kmh N 2.0 mph3.2 kmh 30.16 in1021.3 mb 0.00 in0.0 mm 0.00 in0.0 mm 0.01 in0.3 mm
08:54 AM 47.4°F8.6°C 47.1°F8.4°C 99% 1.3 mph NE2.1 kmh NE 3.0 mph4.8 kmh 30.16 in1021.3 mb 0.00 in0.0 mm 0.00 in0.0 mm 0.01 in0.3 mm
08:59 AM 47.5°F8.6°C 47.2°F8.4°C 99% 1.5 mph NE2.4 kmh NE 3.0 mph4.8 kmh 30.16 in1021.3 mb 0.00 in0.0 mm 0.00 in0.0 mm 0.01 in0.3 mm
09:04 AM 47.6°F8.7°C 47.3°F8.5°C 99% 1.1 mph NE1.8 kmh NE 3.0 mph4.8 kmh 30.16 in1021.3 mb 0.00 in0.0 mm 0.00 in0.0 mm 0.01 in0.3 mm
09:09 AM 47.9°F8.8°C 47.6°F8.7°C 99% 1.5 mph NE2.4 kmh NE 3.0 mph4.8 kmh 30.16 in1021.3 mb 0.00 in0.0 mm 0.00 in0.0 mm 0.01 in0.3 mm
09:14 AM 48.1°F8.9°C 47.8°F8.8°C 99% 1.0 mph NE1.6 kmh NE 3.0 mph4.8 kmh 30.17 in1021.7 mb 0.00 in0.0 mm 0.00 in0.0 mm 0.01 in0.3 mm
09:19 AM 48.4°F9.1°C 48.1°F8.9°C 99% 1.0 mph NNE1.6 kmh NNE 2.0 mph3.2 kmh 30.16 in1021.3 mb 0.00 in0.0 mm 0.00 in0.0 mm 0.01 in0.3 mm
09:24 AM 48.6°F9.2°C 48.3°F9.1°C 99% Calm Calm 2.0 mph3.2 kmh 30.17 in1021.7 mb 0.00 in0.0 mm 0.00 in0.0 mm 0.01 in0.3 mm
09:29 AM 49.1°F9.5°C 48.8°F9.3°C 99% 1.3 mph SE2.1 kmh SE 2.0 mph3.2 kmh 30.17 in1021.7 mb 0.00 in0.0 mm 0.00 in0.0 mm 0.01 in0.3 mm
09:34 AM 49.4°F9.7°C 49.1°F9.5°C 99% 1.6 mph SE2.6 kmh SE 3.0 mph4.8 kmh 30.17 in1021.7 mb 0.00 in0.0 mm 0.00 in0.0 mm 0.01 in0.3 mm
09:39 AM 49.7°F9.8°C 49.4°F9.7°C 99% 1.5 mph SE2.4 kmh SE 3.0 mph4.8 kmh 30.17 in1021.7 mb 0.00 in0.0 mm 0.00 in0.0 mm 0.01 in0.3 mm
09:44 AM 50.0°F10.0°C 49.7°F9.8°C 99% 1.0 mph SE1.6 kmh SE 3.0 mph4.8 kmh 30.17 in1021.7 mb 0.00 in0.0 mm 0.00 in0.0 mm 0.01 in0.3 mm
09:49 AM 50.4°F10.2°C 50.1°F10.1°C 99% Calm Calm 3.0 mph4.8 kmh 30.17 in1021.7 mb 0.00 in0.0 mm 0.00 in0.0 mm 0.01 in0.3 mm
09:54 AM 50.7°F10.4°C 50.4°F10.2°C 99% 1.0 mph E1.6 kmh E 2.0 mph3.2 kmh 30.17 in1021.7 mb 0.00 in0.0 mm 0.00 in0.0 mm 0.01 in0.3 mm
09:59 AM 50.6°F10.3°C 50.3°F10.2°C 99% 1.0 mph SE1.6 kmh SE 2.0 mph3.2 kmh 30.17 in1021.7 mb 0.00 in0.0 mm 0.00 in0.0 mm 0.01 in0.3 mm
10:04 AM 50.7°F10.4°C 50.4°F10.2°C 99% 1.7 mph SE2.7 kmh SE 3.0 mph4.8 kmh 30.17 in1021.7 mb 0.00 in0.0 mm 0.00 in0.0 mm 0.01 in0.3 mm
10:09 AM 50.8°F10.4°C 50.5°F10.3°C 99% 1.7 mph SE2.7 kmh SE 3.0 mph4.8 kmh 30.17 in1021.7 mb 0.00 in0.0 mm 0.00 in0.0 mm 0.01 in0.3 mm
10:14 AM 51.0°F10.6°C 50.7°F10.4°C 99% 1.6 mph SE2.6 kmh SE 3.0 mph4.8 kmh 30.17 in1021.7 mb 0.00 in0.0 mm 0.00 in0.0 mm 0.01 in0.3 mm
10:19 AM 51.3°F10.7°C 51.0°F10.6°C 99% 1.6 mph SE2.6 kmh SE 3.0 mph4.8 kmh 30.17 in1021.7 mb 0.00 in0.0 mm 0.00 in0.0 mm 0.01 in0.3 mm
10:24 AM 51.6°F10.9°C 51.3°F10.7°C 99% 1.3 mph SE2.1 kmh SE 3.0 mph4.8 kmh 30.17 in1021.7 mb 0.00 in0.0 mm 0.00 in0.0 mm 0.01 in0.3 mm
10:29 AM 52.0°F11.1°C 51.7°F10.9°C 99% 2.2 mph SE3.5 kmh SE 4.0 mph6.4 kmh 30.17 in1021.7 mb 0.00 in0.0 mm 0.00 in0.0 mm 0.01 in0.3 mm
10:34 AM 52.4°F11.3°C 52.1°F11.2°C 99% 1.6 mph SE2.6 kmh SE 4.0 mph6.4 kmh 30.17 in1021.7 mb 0.00 in0.0 mm 0.00 in0.0 mm 0.01 in0.3 mm
10:39 AM 52.9°F11.6°C 52.6°F11.4°C 99% Calm Calm 4.0 mph6.4 kmh 30.17 in1021.7 mb 0.00 in0.0 mm 0.00 in0.0 mm 0.01 in0.3 mm
10:44 AM 53.3°F11.8°C 53.0°F11.7°C 99% Calm Calm 4.0 mph6.4 kmh 30.17 in1021.7 mb 0.00 in0.0 mm 0.00 in0.0 mm 0.01 in0.3 mm
10:49 AM 53.4°F11.9°C 53.1°F11.7°C 99% 1.0 mph ENE1.6 kmh ENE 4.0 mph6.4 kmh 30.17 in1021.7 mb 0.00 in0.0 mm 0.00 in0.0 mm 0.01 in0.3 mm
10:54 AM 53.3°F11.8°C 53.0°F11.7°C 99% 1.0 mph NE1.6 kmh NE 1.0 mph1.6 kmh 30.17 in1021.7 mb 0.00 in0.0 mm 0.00 in0.0 mm 0.01 in0.3 mm
10:59 AM 53.6°F12.0°C 53.3°F11.8°C 99% 1.0 mph NE1.6 kmh NE 1.0 mph1.6 kmh 30.17 in1021.7 mb 0.00 in0.0 mm 0.00 in0.0 mm 0.01 in0.3 mm
11:04 AM 53.8°F12.1°C 53.5°F11.9°C 99% 1.1 mph NE1.8 kmh NE 2.0 mph3.2 kmh 30.17 in1021.7 mb 0.00 in0.0 mm 0.00 in0.0 mm 0.01 in0.3 mm
11:09 AM 54.0°F12.2°C 53.7°F12.1°C 99% 1.0 mph NW1.6 kmh NW 2.0 mph3.2 kmh 30.17 in1021.7 mb 0.00 in0.0 mm 0.00 in0.0 mm 0.01 in0.3 mm
11:13 AM 54.0°F12.2°C 53.7°F12.1°C 99% 1.0 mph NNW1.6 kmh NNW 2.0 mph3.2 kmh 30.16 in1021.3 mb 0.00 in0.0 mm 0.00 in0.0 mm 0.01 in0.3 mm
11:18 AM 54.3°F12.4°C 54.0°F12.2°C 99% 1.4 mph N2.3 kmh N 2.0 mph3.2 kmh 30.16 in1021.3 mb 0.00 in0.0 mm 0.00 in0.0 mm 0.01 in0.3 mm
11:23 AM 54.6°F12.6°C 54.3°F12.4°C 99% Calm Calm 2.0 mph3.2 kmh 30.16 in1021.3 mb 0.00 in0.0 mm 0.00 in0.0 mm 0.01 in0.3 mm
11:28 AM 55.1°F12.8°C 54.8°F12.7°C 99% 1.0 mph N1.6 kmh N 2.0 mph3.2 kmh 30.16 in1021.3 mb 0.00 in0.0 mm 0.00 in0.0 mm 0.01 in0.3 mm
11:33 AM 55.6°F13.1°C 55.3°F12.9°C 99% 1.0 mph ENE1.6 kmh ENE 2.0 mph3.2 kmh 30.16 in1021.3 mb 0.00 in0.0 mm 0.00 in0.0 mm 0.01 in0.3 mm
11:38 AM 55.9°F13.3°C 55.6°F13.1°C 99% Calm Calm 1.0 mph1.6 kmh 30.16 in1021.3 mb 0.00 in0.0 mm 0.00 in0.0 mm 0.01 in0.3 mm
11:43 AM 56.4°F13.6°C 56.1°F13.4°C 99% Calm Calm 1.0 mph1.6 kmh 30.16 in1021.3 mb 0.00 in0.0 mm 0.00 in0.0 mm 0.01 in0.3 mm
11:48 AM 56.8°F13.8°C 56.5°F13.6°C 99% 1.0 mph SE1.6 kmh SE 1.0 mph1.6 kmh 30.16 in1021.3 mb 0.00 in0.0 mm 0.00 in0.0 mm 0.01 in0.3 mm
11:53 AM 57.3°F14.1°C 57.0°F13.9°C 99% Calm Calm 1.0 mph1.6 kmh 30.16 in1021.3 mb 0.00 in0.0 mm 0.00 in0.0 mm 0.01 in0.3 mm
11:58 AM 58.2°F14.6°C 57.9°F14.4°C 99% 1.0 mph ENE1.6 kmh ENE 1.0 mph1.6 kmh 30.15 in1021.0 mb 0.00 in0.0 mm 0.00 in0.0 mm 0.01 in0.3 mm
12:03 PM 58.4°F14.7°C 58.1°F14.5°C 99% 1.0 mph ESE1.6 kmh ESE 1.0 mph1.6 kmh 30.15 in1021.0 mb 0.00 in0.0 mm 0.00 in0.0 mm 0.01 in0.3 mm
12:08 PM 58.9°F14.9°C 58.6°F14.8°C 99% 1.2 mph S1.9 kmh S 2.0 mph3.2 kmh 30.15 in1021.0 mb 0.00 in0.0 mm 0.00 in0.0 mm 0.01 in0.3 mm
12:13 PM 59.5°F15.3°C 59.2°F15.1°C 99% 1.1 mph SSE1.8 kmh SSE 2.0 mph3.2 kmh 30.15 in1021.0 mb 0.00 in0.0 mm 0.00 in0.0 mm 0.01 in0.3 mm
12:18 PM 60.4°F15.8°C 60.1°F15.6°C 99% 1.0 mph SE1.6 kmh SE 2.0 mph3.2 kmh 30.15 in1021.0 mb 0.00 in0.0 mm 0.00 in0.0 mm 0.01 in0.3 mm
12:23 PM 61.0°F16.1°C 60.7°F15.9°C 99% 1.1 mph SW1.8 kmh SW 2.0 mph3.2 kmh 30.14 in1020.7 mb 0.00 in0.0 mm 0.00 in0.0 mm 0.01 in0.3 mm
12:28 PM 61.4°F16.3°C 61.1°F16.2°C 99% 1.0 mph SW1.6 kmh SW 2.0 mph3.2 kmh 30.15 in1021.0 mb 0.00 in0.0 mm 0.00 in0.0 mm 0.01 in0.3 mm
12:33 PM 61.4°F16.3°C 61.1°F16.2°C 99% 2.1 mph SW3.4 kmh SW 5.0 mph8.0 kmh 30.14 in1020.7 mb 0.00 in0.0 mm 0.00 in0.0 mm 0.01 in0.3 mm
12:38 PM 62.1°F16.7°C 61.8°F16.6°C 99% 1.4 mph S2.3 kmh S 5.0 mph8.0 kmh 30.14 in1020.7 mb 0.00 in0.0 mm 0.00 in0.0 mm 0.01 in0.3 mm
12:43 PM 62.2°F16.8°C 61.9°F16.6°C 99% 1.9 mph S3.1 kmh S 5.0 mph8.0 kmh 30.14 in1020.7 mb 0.00 in0.0 mm 0.00 in0.0 mm 0.01 in0.3 mm
12:48 PM 62.6°F17.0°C 62.3°F16.8°C 99% 2.2 mph S3.5 kmh S 5.0 mph8.0 kmh 30.13 in1020.3 mb 0.00 in0.0 mm 0.00 in0.0 mm 0.01 in0.3 mm
12:53 PM 63.2°F17.3°C 62.9°F17.2°C 99% 2.2 mph S3.5 kmh S 5.0 mph8.0 kmh 30.13 in1020.3 mb 0.00 in0.0 mm 0.00 in0.0 mm 0.01 in0.3 mm
12:58 PM 63.6°F17.6°C 63.3°F17.4°C 99% 1.9 mph SW3.1 kmh SW 5.0 mph8.0 kmh 30.13 in1020.3 mb 0.00 in0.0 mm 0.00 in0.0 mm 0.01 in0.3 mm
01:03 PM 64.0°F17.8°C 63.7°F17.6°C 99% 2.7 mph S4.3 kmh S 5.0 mph8.0 kmh 30.13 in1020.3 mb 0.00 in0.0 mm 0.00 in0.0 mm 0.01 in0.3 mm
01:08 PM 64.3°F17.9°C 64.0°F17.8°C 99% 2.4 mph S3.9 kmh S 5.0 mph8.0 kmh 30.12 in1020.0 mb 0.00 in0.0 mm 0.00 in0.0 mm 0.01 in0.3 mm
01:13 PM 64.3°F17.9°C 64.0°F17.8°C 99% 2.4 mph SW3.9 kmh SW 6.0 mph9.7 kmh 30.13 in1020.3 mb 0.00 in0.0 mm 0.00 in0.0 mm 0.01 in0.3 mm
01:18 PM 64.6°F18.1°C 64.3°F17.9°C 99% 2.7 mph SW4.3 kmh SW 6.0 mph9.7 kmh 30.12 in1020.0 mb 0.00 in0.0 mm 0.00 in0.0 mm 0.01 in0.3 mm
01:23 PM 65.0°F18.3°C 64.7°F18.2°C 99% Calm Calm 6.0 mph9.7 kmh 30.12 in1020.0 mb 0.00 in0.0 mm 0.00 in0.0 mm 0.01 in0.3 mm
01:28 PM 65.3°F18.5°C 65.0°F18.3°C 99% 3.3 mph SSW5.3 kmh SSW 7.0 mph11.3 kmh 30.12 in1020.0 mb 0.00 in0.0 mm 0.00 in0.0 mm 0.01 in0.3 mm
01:33 PM 65.2°F18.4°C 64.9°F18.3°C 99% 2.0 mph SSE3.2 kmh SSE 7.0 mph11.3 kmh 30.12 in1020.0 mb 0.00 in0.0 mm 0.00 in0.0 mm 0.01 in0.3 mm
01:38 PM 65.5°F18.6°C 65.2°F18.4°C 99% 1.3 mph SSW2.1 kmh SSW 7.0 mph11.3 kmh 30.11 in1019.6 mb 0.00 in0.0 mm 0.00 in0.0 mm 0.01 in0.3 mm
01:43 PM 66.0°F18.9°C 65.7°F18.7°C 99% 2.1 mph SW3.4 kmh SW 7.0 mph11.3 kmh 30.11 in1019.6 mb 0.00 in0.0 mm 0.00 in0.0 mm 0.01 in0.3 mm
01:48 PM 66.2°F19.0°C 65.9°F18.8°C 99% 1.9 mph SSW3.1 kmh SSW 6.0 mph9.7 kmh 30.11 in1019.6 mb 0.00 in0.0 mm 0.00 in0.0 mm 0.01 in0.3 mm
01:53 PM 66.3°F19.1°C 66.0°F18.9°C 99% 2.8 mph S4.5 kmh S 6.0 mph9.7 kmh 30.11 in1019.6 mb 0.00 in0.0 mm 0.00 in0.0 mm 0.01 in0.3 mm
01:58 PM 66.1°F18.9°C 65.8°F18.8°C 99% 1.8 mph S2.9 kmh S 6.0 mph9.7 kmh 30.11 in1019.6 mb 0.00 in0.0 mm 0.00 in0.0 mm 0.01 in0.3 mm
02:03 PM 66.0°F18.9°C 65.4°F18.6°C 98% 2.4 mph SW3.9 kmh SW 6.0 mph9.7 kmh 30.11 in1019.6 mb 0.00 in0.0 mm 0.00 in0.0 mm 0.01 in0.3 mm
02:08 PM 65.9°F18.8°C 65.3°F18.5°C 98% 1.8 mph SW2.9 kmh SW 6.0 mph9.7 kmh 30.11 in1019.6 mb 0.00 in0.0 mm 0.00 in0.0 mm 0.01 in0.3 mm
02:13 PM 66.0°F18.9°C 65.4°F18.6°C 98% 2.5 mph SSW4.0 kmh SSW 6.0 mph9.7 kmh 30.11 in1019.6 mb 0.00 in0.0 mm 0.00 in0.0 mm 0.01 in0.3 mm
02:18 PM 66.0°F18.9°C 65.4°F18.6°C 98% 1.8 mph S2.9 kmh S 6.0 mph9.7 kmh 30.11 in1019.6 mb 0.00 in0.0 mm 0.00 in0.0 mm 0.01 in0.3 mm
02:23 PM 66.1°F18.9°C 65.5°F18.6°C 98% 3.2 mph S5.1 kmh S 7.0 mph11.3 kmh 30.10 in1019.3 mb 0.00 in0.0 mm 0.00 in0.0 mm 0.01 in0.3 mm
02:28 PM 66.1°F18.9°C 65.5°F18.6°C 98% 1.6 mph SSW2.6 kmh SSW 7.0 mph11.3 kmh 30.11 in1019.6 mb 0.00 in0.0 mm 0.00 in0.0 mm 0.01 in0.3 mm
02:33 PM 66.2°F19.0°C 65.6°F18.7°C 98% 1.0 mph S1.6 kmh S 7.0 mph11.3 kmh 30.11 in1019.6 mb 0.00 in0.0 mm 0.00 in0.0 mm 0.01 in0.3 mm
02:38 PM 66.2°F19.0°C 65.6°F18.7°C 98% 2.8 mph S4.5 kmh S 7.0 mph11.3 kmh 30.11 in1019.6 mb 0.00 in0.0 mm 0.00 in0.0 mm 0.01 in0.3 mm
02:43 PM 66.2°F19.0°C 65.6°F18.7°C 98% 1.3 mph SW2.1 kmh SW 6.0 mph9.7 kmh 30.10 in1019.3 mb 0.00 in0.0 mm 0.00 in0.0 mm 0.01 in0.3 mm
02:48 PM 66.3°F19.1°C 65.7°F18.7°C 98% 2.4 mph S3.9 kmh S 6.0 mph9.7 kmh 30.10 in1019.3 mb 0.00 in0.0 mm 0.00 in0.0 mm 0.01 in0.3 mm
02:53 PM 66.4°F19.1°C 65.8°F18.8°C 98% 1.1 mph SE1.8 kmh SE 6.0 mph9.7 kmh 30.10 in1019.3 mb 0.00 in0.0 mm 0.00 in0.0 mm 0.01 in0.3 mm
02:58 PM 66.5°F19.2°C 65.9°F18.8°C 98% 2.2 mph SE3.5 kmh SE 6.0 mph9.7 kmh 30.10 in1019.3 mb 0.00 in0.0 mm 0.00 in0.0 mm 0.01 in0.3 mm
03:03 PM 66.5°F19.2°C 65.9°F18.8°C 98% 2.6 mph SE4.2 kmh SE 6.0 mph9.7 kmh 30.09 in1019.0 mb 0.00 in0.0 mm 0.00 in0.0 mm 0.01 in0.3 mm
03:08 PM 66.9°F19.4°C 66.3°F19.1°C 98% 2.9 mph SE4.7 kmh SE 4.0 mph6.4 kmh 30.09 in1019.0 mb 0.00 in0.0 mm 0.00 in0.0 mm 0.01 in0.3 mm
03:14 PM 67.3°F19.6°C 66.7°F19.3°C 98% 3.4 mph SE5.5 kmh SE 5.0 mph8.0 kmh 30.08 in1018.6 mb 0.00 in0.0 mm 0.00 in0.0 mm 0.01 in0.3 mm
03:19 PM 67.7°F19.8°C 67.1°F19.5°C 98% 2.9 mph SE4.7 kmh SE 6.0 mph9.7 kmh 30.08 in1018.6 mb 0.00 in0.0 mm 0.00 in0.0 mm 0.01 in0.3 mm
03:24 PM 68.1°F20.1°C 67.5°F19.7°C 98% 2.6 mph SSE4.2 kmh SSE 8.0 mph12.9 kmh 30.08 in1018.6 mb 0.00 in0.0 mm 0.00 in0.0 mm 0.01 in0.3 mm
03:29 PM 68.4°F20.2°C 67.8°F19.9°C 98% 2.6 mph S4.2 kmh S 11.0 mph17.7 kmh 30.08 in1018.6 mb 0.00 in0.0 mm 0.00 in0.0 mm 0.01 in0.3 mm
03:34 PM 68.8°F20.4°C 67.9°F19.9°C 97% 3.5 mph S5.6 kmh S 11.0 mph17.7 kmh 30.08 in1018.6 mb 0.00 in0.0 mm 0.00 in0.0 mm 0.01 in0.3 mm
03:39 PM 69.3°F20.7°C 67.8°F19.9°C 95% 3.2 mph S5.1 kmh S 11.0 mph17.7 kmh 30.08 in1018.6 mb 0.00 in0.0 mm 0.00 in0.0 mm 0.01 in0.3 mm
03:44 PM 69.7°F20.9°C 67.6°F19.8°C 93% 1.9 mph SSW3.1 kmh SSW 11.0 mph17.7 kmh 30.08 in1018.6 mb 0.00 in0.0 mm 0.00 in0.0 mm 0.01 in0.3 mm
03:49 PM 70.0°F21.1°C 67.5°F19.7°C 92% 3.1 mph SSW5.0 kmh SSW 8.0 mph12.9 kmh 30.09 in1019.0 mb 0.00 in0.0 mm 0.00 in0.0 mm 0.01 in0.3 mm
03:54 PM 70.0°F21.1°C 67.5°F19.7°C 92% 2.5 mph S4.0 kmh S 8.0 mph12.9 kmh 30.09 in1019.0 mb 0.00 in0.0 mm 0.00 in0.0 mm 0.01 in0.3 mm
03:59 PM 70.0°F21.1°C 67.2°F19.6°C 91% 1.9 mph S3.1 kmh S 7.0 mph11.3 kmh 30.08 in1018.6 mb 0.00 in0.0 mm 0.00 in0.0 mm 0.01 in0.3 mm
04:04 PM 70.0°F21.1°C 67.2°F19.6°C 91% 2.5 mph SW4.0 kmh SW 7.0 mph11.3 kmh 30.08 in1018.6 mb 0.00 in0.0 mm 0.00 in0.0 mm 0.01 in0.3 mm
04:09 PM 69.8°F21.0°C 67.1°F19.5°C 91% 4.4 mph S7.1 kmh S 9.0 mph14.5 kmh 30.08 in1018.6 mb 0.00 in0.0 mm 0.00 in0.0 mm 0.01 in0.3 mm
04:13 PM 69.3°F20.7°C 66.9°F19.4°C 92% 3.4 mph SW5.5 kmh SW 9.0 mph14.5 kmh 30.08 in1018.6 mb 0.03 in0.8 mm 0.45 in11.4 mm 0.04 in1.0 mm
04:18 PM 69.0°F20.6°C 66.9°F19.4°C 93% 1.3 mph SW2.1 kmh SW 9.0 mph14.5 kmh 30.08 in1018.6 mb 0.04 in1.0 mm 0.12 in3.0 mm 0.05 in1.3 mm
04:23 PM 68.8°F20.4°C 67.0°F19.4°C 94% 1.0 mph SSE1.6 kmh SSE 9.0 mph14.5 kmh 30.08 in1018.6 mb 0.05 in1.3 mm 0.12 in3.0 mm 0.06 in1.5 mm
04:28 PM 68.6°F20.3°C 66.8°F19.3°C 94% 1.4 mph SSE2.3 kmh SSE 7.0 mph11.3 kmh 30.08 in1018.6 mb 0.05 in1.3 mm 0.00 in0.0 mm 0.06 in1.5 mm
04:33 PM 68.5°F20.3°C 67.0°F19.4°C 95% Calm Calm 5.0 mph8.0 kmh 30.08 in1018.6 mb 0.05 in1.3 mm 0.00 in0.0 mm 0.06 in1.5 mm
04:38 PM 68.4°F20.2°C 66.9°F19.4°C 95% 1.8 mph SSW2.9 kmh SSW 3.0 mph4.8 kmh 30.08 in1018.6 mb 0.05 in1.3 mm 0.00 in0.0 mm 0.06 in1.5 mm
04:43 PM 68.3°F20.2°C 67.1°F19.5°C 96% 1.0 mph SSW1.6 kmh SSW 3.0 mph4.8 kmh 30.08 in1018.6 mb 0.05 in1.3 mm 0.00 in0.0 mm 0.06 in1.5 mm
04:48 PM 68.3°F20.2°C 67.1°F19.5°C 96% Calm Calm 3.0 mph4.8 kmh 30.09 in1019.0 mb 0.05 in1.3 mm 0.00 in0.0 mm 0.06 in1.5 mm
04:53 PM 68.2°F20.1°C 67.0°F19.4°C 96% 1.4 mph SSW2.3 kmh SSW 3.0 mph4.8 kmh 30.08 in1018.6 mb 0.05 in1.3 mm 0.00 in0.0 mm 0.06 in1.5 mm
04:58 PM 68.1°F20.1°C 66.9°F19.4°C 96% 1.0 mph SSE1.6 kmh SSE 3.0 mph4.8 kmh 30.08 in1018.6 mb 0.05 in1.3 mm 0.00 in0.0 mm 0.06 in1.5 mm
05:03 PM 68.1°F20.1°C 67.2°F19.6°C 97% 1.2 mph S1.9 kmh S 3.0 mph4.8 kmh 30.08 in1018.6 mb 0.05 in1.3 mm 0.00 in0.0 mm 0.06 in1.5 mm
05:08 PM 68.1°F20.1°C 67.2°F19.6°C 97% Calm Calm 3.0 mph4.8 kmh 30.08 in1018.6 mb 0.05 in1.3 mm 0.00 in0.0 mm 0.06 in1.5 mm
05:13 PM 68.0°F20.0°C 67.1°F19.5°C 97% 1.0 mph SSE1.6 kmh SSE 3.0 mph4.8 kmh 30.08 in1018.6 mb 0.02 in0.5 mm 0.00 in0.0 mm 0.06 in1.5 mm
05:18 PM 68.0°F20.0°C 67.1°F19.5°C 97% 1.0 mph SE1.6 kmh SE 3.0 mph4.8 kmh 30.08 in1018.6 mb 0.01 in0.3 mm 0.00 in0.0 mm 0.06 in1.5 mm
05:23 PM 67.9°F19.9°C 67.0°F19.4°C 97% 1.0 mph SSE1.6 kmh SSE 2.0 mph3.2 kmh 30.07 in1018.3 mb 0.00 in0.0 mm 0.00 in0.0 mm 0.06 in1.5 mm
05:28 PM 67.9°F19.9°C 67.0°F19.4°C 97% Calm Calm 2.0 mph3.2 kmh 30.08 in1018.6 mb 0.00 in0.0 mm 0.00 in0.0 mm 0.06 in1.5 mm
05:33 PM 67.8°F19.9°C 66.9°F19.4°C 97% Calm Calm 1.0 mph1.6 kmh 30.08 in1018.6 mb 0.00 in0.0 mm 0.00 in0.0 mm 0.06 in1.5 mm
05:38 PM 67.7°F19.8°C 66.8°F19.3°C 97% 1.0 mph SE1.6 kmh SE 1.0 mph1.6 kmh 30.07 in1018.3 mb 0.00 in0.0 mm 0.00 in0.0 mm 0.06 in1.5 mm
05:43 PM 67.7°F19.8°C 66.8°F19.3°C 97% 1.0 mph SE1.6 kmh SE 1.0 mph1.6 kmh 30.07 in1018.3 mb 0.00 in0.0 mm 0.00 in0.0 mm 0.06 in1.5 mm
05:48 PM 67.7°F19.8°C 66.8°F19.3°C 97% 1.0 mph SE1.6 kmh SE 1.0 mph1.6 kmh 30.08 in1018.6 mb 0.00 in0.0 mm 0.00 in0.0 mm 0.06 in1.5 mm
05:53 PM 67.6°F19.8°C 66.7°F19.3°C 97% Calm Calm 1.0 mph1.6 kmh 30.07 in1018.3 mb 0.00 in0.0 mm 0.00 in0.0 mm 0.06 in1.5 mm
05:58 PM 67.6°F19.8°C 66.7°F19.3°C 97% Calm Calm 1.0 mph1.6 kmh 30.07 in1018.3 mb 0.00 in0.0 mm 0.00 in0.0 mm 0.06 in1.5 mm
06:03 PM 67.5°F19.7°C 66.6°F19.2°C 97% 1.0 mph ESE1.6 kmh ESE 1.0 mph1.6 kmh 30.07 in1018.3 mb 0.00 in0.0 mm 0.00 in0.0 mm 0.06 in1.5 mm
06:08 PM 67.4°F19.7°C 66.5°F19.2°C 97% 1.0 mph SE1.6 kmh SE 2.0 mph3.2 kmh 30.07 in1018.3 mb 0.00 in0.0 mm 0.00 in0.0 mm 0.06 in1.5 mm
06:13 PM 67.4°F19.7°C 66.5°F19.2°C 97% 1.0 mph SE1.6 kmh SE 2.0 mph3.2 kmh 30.07 in1018.3 mb 0.00 in0.0 mm 0.00 in0.0 mm 0.06 in1.5 mm
06:18 PM 67.3°F19.6°C 66.4°F19.1°C 97% 1.1 mph SE1.8 kmh SE 2.0 mph3.2 kmh 30.07 in1018.3 mb 0.00 in0.0 mm 0.00 in0.0 mm 0.06 in1.5 mm
06:23 PM 67.3°F19.6°C 66.4°F19.1°C 97% 1.3 mph SE2.1 kmh SE 2.0 mph3.2 kmh 30.07 in1018.3 mb 0.00 in0.0 mm 0.00 in0.0 mm 0.06 in1.5 mm
06:28 PM 67.2°F19.6°C 66.3°F19.1°C 97% 1.0 mph SE1.6 kmh SE 2.0 mph3.2 kmh 30.07 in1018.3 mb 0.00 in0.0 mm 0.00 in0.0 mm 0.06 in1.5 mm
06:33 PM 67.2°F19.6°C 66.3°F19.1°C 97% 1.0 mph SE1.6 kmh SE 2.0 mph3.2 kmh 30.08 in1018.6 mb 0.00 in0.0 mm 0.00 in0.0 mm 0.06 in1.5 mm
06:38 PM 67.1°F19.5°C 66.2°F19.0°C 97% 1.0 mph SE1.6 kmh SE 2.0 mph3.2 kmh 30.08 in1018.6 mb 0.00 in0.0 mm 0.00 in0.0 mm 0.06 in1.5 mm
06:43 PM 67.1°F19.5°C 66.2°F19.0°C 97% 1.1 mph SE1.8 kmh SE 2.0 mph3.2 kmh 30.08 in1018.6 mb 0.00 in0.0 mm 0.00 in0.0 mm 0.06 in1.5 mm
06:48 PM 67.0°F19.4°C 66.1°F18.9°C 97% 1.5 mph SE2.4 kmh SE 3.0 mph4.8 kmh 30.08 in1018.6 mb 0.00 in0.0 mm 0.00 in0.0 mm 0.06 in1.5 mm
06:53 PM 66.9°F19.4°C 66.3°F19.1°C 98% 1.0 mph SE1.6 kmh SE 4.0 mph6.4 kmh 30.07 in1018.3 mb 0.00 in0.0 mm 0.00 in0.0 mm 0.06 in1.5 mm
06:58 PM 66.8°F19.3°C 66.2°F19.0°C 98% 1.2 mph SE1.9 kmh SE 4.0 mph6.4 kmh 30.08 in1018.6 mb 0.00 in0.0 mm 0.00 in0.0 mm 0.06 in1.5 mm
07:03 PM 66.7°F19.3°C 66.1°F18.9°C 98% 1.0 mph ESE1.6 kmh ESE 4.0 mph6.4 kmh 30.08 in1018.6 mb 0.00 in0.0 mm 0.00 in0.0 mm 0.06 in1.5 mm
07:08 PM 66.6°F19.2°C 66.0°F18.9°C 98% Calm Calm 4.0 mph6.4 kmh 30.09 in1019.0 mb 0.00 in0.0 mm 0.00 in0.0 mm 0.06 in1.5 mm
07:13 PM 66.5°F19.2°C 65.9°F18.8°C 98% 1.3 mph ESE2.1 kmh ESE 4.0 mph6.4 kmh 30.08 in1018.6 mb 0.00 in0.0 mm 0.00 in0.0 mm 0.06 in1.5 mm
07:18 PM 66.4°F19.1°C 65.8°F18.8°C 98% 1.0 mph SE1.6 kmh SE 2.0 mph3.2 kmh 30.08 in1018.6 mb 0.00 in0.0 mm 0.00 in0.0 mm 0.06 in1.5 mm
07:23 PM 66.3°F19.1°C 65.7°F18.7°C 98% 1.0 mph SE1.6 kmh SE 2.0 mph3.2 kmh 30.08 in1018.6 mb 0.00 in0.0 mm 0.00 in0.0 mm 0.06 in1.5 mm
07:28 PM 66.3°F19.1°C 65.7°F18.7°C 98% 1.1 mph SE1.8 kmh SE 2.0 mph3.2 kmh 30.08 in1018.6 mb 0.00 in0.0 mm 0.00 in0.0 mm 0.06 in1.5 mm
07:33 PM 66.2°F19.0°C 65.6°F18.7°C 98% 1.0 mph SE1.6 kmh SE 2.0 mph3.2 kmh 30.08 in1018.6 mb 0.00 in0.0 mm 0.00 in0.0 mm 0.06 in1.5 mm
07:38 PM 66.0°F18.9°C 65.4°F18.6°C 98% Calm Calm 2.0 mph3.2 kmh 30.08 in1018.6 mb 0.00 in0.0 mm 0.00 in0.0 mm 0.06 in1.5 mm
07:43 PM 66.0°F18.9°C 65.4°F18.6°C 98% 1.0 mph E1.6 kmh E 2.0 mph3.2 kmh 30.08 in1018.6 mb 0.00 in0.0 mm 0.00 in0.0 mm 0.06 in1.5 mm
07:48 PM 65.9°F18.8°C 65.3°F18.5°C 98% 1.5 mph ESE2.4 kmh ESE 3.0 mph4.8 kmh 30.08 in1018.6 mb 0.00 in0.0 mm 0.00 in0.0 mm 0.06 in1.5 mm
07:53 PM 65.8°F18.8°C 65.2°F18.4°C 98% 1.3 mph SE2.1 kmh SE 3.0 mph4.8 kmh 30.08 in1018.6 mb 0.00 in0.0 mm 0.00 in0.0 mm 0.06 in1.5 mm
07:58 PM 65.8°F18.8°C 65.2°F18.4°C 98% 1.1 mph SE1.8 kmh SE 3.0 mph4.8 kmh 30.08 in1018.6 mb 0.00 in0.0 mm 0.00 in0.0 mm 0.06 in1.5 mm
08:03 PM 65.6°F18.7°C 65.0°F18.3°C 98% 1.7 mph SE2.7 kmh SE 3.0 mph4.8 kmh 30.08 in1018.6 mb 0.00 in0.0 mm 0.00 in0.0 mm 0.06 in1.5 mm
08:08 PM 65.5°F18.6°C 64.9°F18.3°C 98% 1.8 mph SE2.9 kmh SE 3.0 mph4.8 kmh 30.08 in1018.6 mb 0.00 in0.0 mm 0.00 in0.0 mm 0.06 in1.5 mm
08:13 PM 65.3°F18.5°C 64.7°F18.2°C 98% 1.0 mph SE1.6 kmh SE 3.0 mph4.8 kmh 30.08 in1018.6 mb 0.00 in0.0 mm 0.00 in0.0 mm 0.06 in1.5 mm
08:18 PM 65.1°F18.4°C 64.5°F18.1°C 98% 2.1 mph SE3.4 kmh SE 4.0 mph6.4 kmh 30.08 in1018.6 mb 0.00 in0.0 mm 0.00 in0.0 mm 0.06 in1.5 mm
08:23 PM 65.1°F18.4°C 64.5°F18.1°C 98% 1.6 mph SE2.6 kmh SE 4.0 mph6.4 kmh 30.08 in1018.6 mb 0.00 in0.0 mm 0.00 in0.0 mm 0.06 in1.5 mm
08:28 PM 65.0°F18.3°C 64.4°F18.0°C 98% 1.7 mph SE2.7 kmh SE 4.0 mph6.4 kmh 30.08 in1018.6 mb 0.00 in0.0 mm 0.00 in0.0 mm 0.06 in1.5 mm
08:33 PM 65.0°F18.3°C 64.4°F18.0°C 98% 1.6 mph SE2.6 kmh SE 4.0 mph6.4 kmh 30.08 in1018.6 mb 0.00 in0.0 mm 0.00 in0.0 mm 0.06 in1.5 mm
08:38 PM 65.0°F18.3°C 64.4°F18.0°C 98% 1.2 mph SE1.9 kmh SE 3.0 mph4.8 kmh 30.08 in1018.6 mb 0.00 in0.0 mm 0.00 in0.0 mm 0.06 in1.5 mm
08:43 PM 65.0°F18.3°C 64.4°F18.0°C 98% 1.5 mph SE2.4 kmh SE 3.0 mph4.8 kmh 30.08 in1018.6 mb 0.00 in0.0 mm 0.00 in0.0 mm 0.06 in1.5 mm
08:48 PM 65.1°F18.4°C 64.5°F18.1°C 98% 1.8 mph SE2.9 kmh SE 5.0 mph8.0 kmh 30.08 in1018.6 mb 0.00 in0.0 mm 0.00 in0.0 mm 0.06 in1.5 mm
08:53 PM 65.0°F18.3°C 64.4°F18.0°C 98% 1.0 mph ESE1.6 kmh ESE 5.0 mph8.0 kmh 30.09 in1019.0 mb 0.00 in0.0 mm 0.00 in0.0 mm 0.06 in1.5 mm
08:58 PM 65.0°F18.3°C 64.4°F18.0°C 98% Calm Calm 5.0 mph8.0 kmh 30.09 in1019.0 mb 0.00 in0.0 mm 0.00 in0.0 mm 0.06 in1.5 mm
09:03 PM 65.0°F18.3°C 64.4°F18.0°C 98% Calm Calm 5.0 mph8.0 kmh 30.10 in1019.3 mb 0.00 in0.0 mm 0.00 in0.0 mm 0.06 in1.5 mm
09:08 PM 65.0°F18.3°C 64.4°F18.0°C 98% 1.2 mph SE1.9 kmh SE 2.0 mph3.2 kmh 30.09 in1019.0 mb 0.00 in0.0 mm 0.00 in0.0 mm 0.06 in1.5 mm
09:12 PM 64.9°F18.3°C 64.3°F17.9°C 98% 1.0 mph SE1.6 kmh SE 2.0 mph3.2 kmh 30.09 in1019.0 mb 0.00 in0.0 mm 0.00 in0.0 mm 0.06 in1.5 mm
09:17 PM 64.8°F18.2°C 64.2°F17.9°C 98% 1.0 mph SE1.6 kmh SE 2.0 mph3.2 kmh 30.09 in1019.0 mb 0.00 in0.0 mm 0.00 in0.0 mm 0.06 in1.5 mm
09:22 PM 64.7°F18.2°C 64.1°F17.8°C 98% 1.0 mph SE1.6 kmh SE 2.0 mph3.2 kmh 30.09 in1019.0 mb 0.00 in0.0 mm 0.00 in0.0 mm 0.06 in1.5 mm
09:27 PM 64.6°F18.1°C 64.0°F17.8°C 98% 1.5 mph SE2.4 kmh SE 3.0 mph4.8 kmh 30.09 in1019.0 mb 0.00 in0.0 mm 0.00 in0.0 mm 0.06 in1.5 mm
09:32 PM 64.5°F18.1°C 63.9°F17.7°C 98% 1.4 mph SE2.3 kmh SE 3.0 mph4.8 kmh 30.09 in1019.0 mb 0.00 in0.0 mm 0.00 in0.0 mm 0.06 in1.5 mm
09:37 PM 64.5°F18.1°C 63.9°F17.7°C 98% 1.0 mph SE1.6 kmh SE 3.0 mph4.8 kmh 30.10 in1019.3 mb 0.00 in0.0 mm 0.00 in0.0 mm 0.06 in1.5 mm
09:42 PM 64.5°F18.1°C 63.9°F17.7°C 98% 1.4 mph SE2.3 kmh SE 3.0 mph4.8 kmh 30.10 in1019.3 mb 0.00 in0.0 mm 0.00 in0.0 mm 0.06 in1.5 mm
09:47 PM 64.5°F18.1°C 63.9°F17.7°C 98% 1.8 mph SE2.9 kmh SE 4.0 mph6.4 kmh 30.10 in1019.3 mb 0.00 in0.0 mm 0.00 in0.0 mm 0.06 in1.5 mm
09:52 PM 64.5°F18.1°C 63.9°F17.7°C 98% Calm Calm 4.0 mph6.4 kmh 30.10 in1019.3 mb 0.00 in0.0 mm 0.00 in0.0 mm 0.06 in1.5 mm
09:57 PM 64.4°F18.0°C 63.8°F17.7°C 98% Calm Calm 4.0 mph6.4 kmh 30.10 in1019.3 mb 0.00 in0.0 mm 0.00 in0.0 mm 0.06 in1.5 mm
10:02 PM 64.4°F18.0°C 63.8°F17.7°C 98% Calm Calm 4.0 mph6.4 kmh 30.10 in1019.3 mb 0.00 in0.0 mm 0.00 in0.0 mm 0.06 in1.5 mm
10:07 PM 64.4°F18.0°C 63.8°F17.7°C 98% 1.0 mph SSE1.6 kmh SSE 2.0 mph3.2 kmh 30.10 in1019.3 mb 0.00 in0.0 mm 0.00 in0.0 mm 0.06 in1.5 mm
10:12 PM 64.3°F17.9°C 63.7°F17.6°C 98% 1.0 mph SSE1.6 kmh SSE 2.0 mph3.2 kmh 30.10 in1019.3 mb 0.00 in0.0 mm 0.00 in0.0 mm 0.06 in1.5 mm
10:17 PM 64.3°F17.9°C 63.7°F17.6°C 98% 1.0 mph S1.6 kmh S 1.0 mph1.6 kmh 30.10 in1019.3 mb 0.00 in0.0 mm 0.00 in0.0 mm 0.06 in1.5 mm
10:22 PM 64.2°F17.9°C 63.6°F17.6°C 98% Calm Calm 1.0 mph1.6 kmh 30.10 in1019.3 mb 0.00 in0.0 mm 0.00 in0.0 mm 0.06 in1.5 mm
10:27 PM 64.2°F17.9°C 63.6°F17.6°C 98% 1.1 mph S1.8 kmh S 2.0 mph3.2 kmh 30.10 in1019.3 mb 0.00 in0.0 mm 0.00 in0.0 mm 0.06 in1.5 mm
10:32 PM 64.1°F17.8°C 63.5°F17.5°C 98% 1.1 mph SSW1.8 kmh SSW 2.0 mph3.2 kmh 30.11 in1019.6 mb 0.00 in0.0 mm 0.00 in0.0 mm 0.06 in1.5 mm
10:37 PM 64.0°F17.8°C 63.4°F17.4°C 98% 1.0 mph SW1.6 kmh SW 2.0 mph3.2 kmh 30.11 in1019.6 mb 0.00 in0.0 mm 0.00 in0.0 mm 0.06 in1.5 mm
10:42 PM 64.0°F17.8°C 63.7°F17.6°C 99% Calm Calm 2.0 mph3.2 kmh 30.11 in1019.6 mb 0.00 in0.0 mm 0.00 in0.0 mm 0.06 in1.5 mm
10:47 PM 63.9°F17.7°C 63.6°F17.6°C 99% Calm Calm 2.0 mph3.2 kmh 30.11 in1019.6 mb 0.00 in0.0 mm 0.00 in0.0 mm 0.06 in1.5 mm
10:52 PM 63.9°F17.7°C 63.6°F17.6°C 99% Calm Calm 1.0 mph1.6 kmh 30.11 in1019.6 mb 0.00 in0.0 mm 0.00 in0.0 mm 0.06 in1.5 mm
10:57 PM 63.8°F17.7°C 63.5°F17.5°C 99% 1.0 mph SSE1.6 kmh SSE 1.0 mph1.6 kmh 30.11 in1019.6 mb 0.00 in0.0 mm 0.00 in0.0 mm 0.06 in1.5 mm
11:02 PM 63.8°F17.7°C 63.5°F17.5°C 99% 1.0 mph SE1.6 kmh SE 1.0 mph1.6 kmh 30.10 in1019.3 mb 0.00 in0.0 mm 0.00 in0.0 mm 0.06 in1.5 mm
11:07 PM 63.9°F17.7°C 63.6°F17.6°C 99% 1.1 mph SE1.8 kmh SE 4.0 mph6.4 kmh 30.11 in1019.6 mb 0.00 in0.0 mm 0.00 in0.0 mm 0.06 in1.5 mm
11:12 PM 63.9°F17.7°C 63.6°F17.6°C 99% 1.0 mph SE1.6 kmh SE 4.0 mph6.4 kmh 30.10 in1019.3 mb 0.00 in0.0 mm 0.00 in0.0 mm 0.06 in1.5 mm
11:17 PM 64.0°F17.8°C 63.7°F17.6°C 99% Calm Calm 4.0 mph6.4 kmh 30.11 in1019.6 mb 0.00 in0.0 mm 0.00 in0.0 mm 0.06 in1.5 mm
11:22 PM 63.9°F17.7°C 63.6°F17.6°C 99% Calm Calm 4.0 mph6.4 kmh 30.11 in1019.6 mb 0.00 in0.0 mm 0.00 in0.0 mm 0.06 in1.5 mm
11:27 PM 64.0°F17.8°C 63.7°F17.6°C 99% 1.0 mph SW1.6 kmh SW 2.0 mph3.2 kmh 30.11 in1019.6 mb 0.00 in0.0 mm 0.00 in0.0 mm 0.06 in1.5 mm
11:32 PM 63.9°F17.7°C 63.6°F17.6°C 99% Calm Calm 1.0 mph1.6 kmh 30.11 in1019.6 mb 0.00 in0.0 mm 0.00 in0.0 mm 0.06 in1.5 mm
11:37 PM 63.9°F17.7°C 63.6°F17.6°C 99% 1.0 mph SW1.6 kmh SW 2.0 mph3.2 kmh 30.11 in1019.6 mb 0.00 in0.0 mm 0.00 in0.0 mm 0.06 in1.5 mm
11:42 PM 63.8°F17.7°C 63.5°F17.5°C 99% 1.0 mph SSW1.6 kmh SSW 2.0 mph3.2 kmh 30.11 in1019.6 mb 0.00 in0.0 mm 0.00 in0.0 mm 0.06 in1.5 mm
11:47 PM 63.8°F17.7°C 63.5°F17.5°C 99% Calm Calm 2.0 mph3.2 kmh 30.11 in1019.6 mb 0.00 in0.0 mm 0.00 in0.0 mm 0.06 in1.5 mm
11:52 PM 63.9°F17.7°C 63.6°F17.6°C 99% Calm Calm 2.0 mph3.2 kmh 30.11 in1019.6 mb 0.00 in0.0 mm 0.00 in0.0 mm 0.06 in1.5 mm
11:57 PM 63.9°F17.7°C 63.6°F17.6°C 99% 1.0 mph SW1.6 kmh SW 1.0 mph1.6 kmh 30.11 in1019.6 mb 0.00 in0.0 mm 0.00 in0.0 mm 0.06 in1.5 mm